createdAt,value
2017-09-18T00:01:28.784Z,96806.56
2017-09-18T00:03:56.186Z,96809.30
2017-09-18T00:06:23.598Z,96812.47
2017-09-18T00:08:51.041Z,96812.59
2017-09-18T00:11:18.446Z,96811.09
2017-09-18T00:13:45.869Z,96815.20
2017-09-18T00:16:13.327Z,96814.68
2017-09-18T00:18:41.222Z,96813.84
2017-09-18T00:21:08.630Z,96813.97
2017-09-18T00:23:36.069Z,96813.84
2017-09-18T00:26:04.077Z,96809.86
2017-09-18T00:28:31.477Z,96810.51
2017-09-18T00:30:58.935Z,96812.27
2017-09-18T00:33:26.357Z,96815.86
2017-09-18T00:35:53.766Z,96813.25
2017-09-18T00:38:21.215Z,96807.21
2017-09-18T00:40:48.642Z,96803.10
2017-09-18T00:43:16.061Z,96811.62
2017-09-18T00:45:43.487Z,96812.59
2017-09-18T00:48:11.028Z,96804.47
2017-09-18T00:50:38.436Z,96808.48
2017-09-18T00:53:05.893Z,96801.31
2017-09-18T00:55:33.304Z,96801.31
2017-09-18T00:58:00.723Z,96800.20
2017-09-18T01:00:28.241Z,96799.64
2017-09-18T01:02:55.686Z,96803.53
2017-09-18T01:05:23.105Z,96806.98
2017-09-18T01:07:50.546Z,96812.47
2017-09-18T01:10:17.966Z,96817.52
2017-09-18T01:12:45.382Z,96813.97
2017-09-18T01:15:12.827Z,96819.31
2017-09-18T01:17:40.345Z,96814.48
2017-09-18T01:20:07.760Z,96809.14
2017-09-18T01:22:35.217Z,96814.48
2017-09-18T01:25:02.639Z,96803.66
2017-09-18T01:27:30.075Z,96798.99
2017-09-18T01:29:57.549Z,96809.14
2017-09-18T01:32:24.949Z,96803.10
2017-09-18T01:34:52.351Z,96804.89
2017-09-18T01:37:19.788Z,96802.16
2017-09-18T01:39:47.205Z,96796.16
2017-09-18T01:42:14.622Z,96801.21
2017-09-18T01:44:42.081Z,96804.05
2017-09-18T01:47:09.510Z,96803.40
2017-09-18T01:49:36.909Z,96804.77
2017-09-18T01:52:05.224Z,96799.70
2017-09-18T01:54:32.635Z,96806.13
2017-09-18T01:57:00.066Z,96808.06
2017-09-18T01:59:27.510Z,96811.62
2017-09-18T02:01:54.936Z,96808.48
2017-09-18T02:04:22.360Z,96809.86
2017-09-18T02:06:49.791Z,96812.04
2017-09-18T02:09:17.206Z,96813.84
2017-09-18T02:11:44.625Z,96815.34
2017-09-18T02:14:12.087Z,96817.95
2017-09-18T02:16:39.580Z,96820.91
2017-09-18T02:19:07.037Z,96824.50
2017-09-18T02:21:34.469Z,96816.80
2017-09-18T02:24:01.887Z,96819.97
2017-09-18T02:26:29.324Z,96827.23
2017-09-18T02:28:56.959Z,96830.80
2017-09-18T02:31:24.429Z,96829.03
2017-09-18T02:33:51.824Z,96828.61
2017-09-18T02:36:19.300Z,96832.17
2017-09-18T02:38:46.736Z,96832.72
2017-09-18T02:41:14.183Z,96836.70
2017-09-18T02:43:41.631Z,96833.14
2017-09-18T02:46:09.041Z,96829.98
2017-09-18T02:48:36.462Z,96830.41
2017-09-18T02:51:03.919Z,96829.03
2017-09-18T02:53:31.333Z,96829.69
2017-09-18T02:55:58.758Z,96828.91
2017-09-18T02:58:26.191Z,96833.54
2017-09-18T03:00:53.598Z,96827.23
2017-09-18T03:03:21.022Z,96833.96
2017-09-18T03:05:48.481Z,96823.55
2017-09-18T03:08:15.879Z,96829.85
2017-09-18T03:10:43.508Z,96827.67
2017-09-18T03:13:10.944Z,96829.98
2017-09-18T03:15:38.357Z,96833.96
2017-09-18T03:18:05.834Z,96840.81
2017-09-18T03:20:33.265Z,96831.88
2017-09-18T03:23:00.728Z,96836.83
2017-09-18T03:25:28.153Z,96839.87
2017-09-18T03:27:55.601Z,96839.45
2017-09-18T03:30:23.010Z,96834.81
2017-09-18T03:32:50.467Z,96834.68
2017-09-18T03:35:17.919Z,96833.14
2017-09-18T03:37:45.344Z,96829.56
2017-09-18T03:40:12.771Z,96831.45
2017-09-18T03:42:40.187Z,96828.70
2017-09-18T03:45:07.598Z,96828.61
2017-09-18T03:47:35.013Z,96829.43
2017-09-18T03:50:02.466Z,96834.09
2017-09-18T03:52:29.977Z,96837.65
2017-09-18T03:54:57.386Z,96838.30
2017-09-18T03:57:24.826Z,96844.50
2017-09-18T03:59:52.235Z,96850.23
2017-09-18T04:02:19.662Z,96850.53
2017-09-18T04:04:47.106Z,96847.59
2017-09-18T04:07:14.547Z,96854.34
2017-09-18T04:09:41.961Z,96853.37
2017-09-18T04:12:09.383Z,96852.00
2017-09-18T04:14:36.789Z,96852.13
2017-09-18T04:17:04.739Z,96852.13
2017-09-18T04:19:32.173Z,96858.85
2017-09-18T04:21:59.585Z,96861.59
2017-09-18T04:24:27.047Z,96862.44
2017-09-18T04:26:54.492Z,96863.52
2017-09-18T04:29:21.899Z,96862.02
2017-09-18T04:31:49.311Z,96861.92
2017-09-18T04:34:16.751Z,96864.33
2017-09-18T04:36:44.151Z,96868.87
2017-09-18T04:39:11.583Z,96870.07
2017-09-18T04:41:39.027Z,96874.57
2017-09-18T04:44:06.480Z,96869.52
2017-09-18T04:46:33.888Z,96872.45
2017-09-18T04:49:01.323Z,96874.48
2017-09-18T04:51:28.799Z,96877.73
2017-09-18T04:53:56.764Z,96878.75
2017-09-18T04:56:24.186Z,96883.48
2017-09-18T04:58:51.595Z,96882.47
2017-09-18T05:01:19.016Z,96882.86
2017-09-18T05:03:46.443Z,96879.73
2017-09-18T05:06:13.916Z,96885.93
2017-09-18T05:08:41.318Z,96886.32
2017-09-18T05:11:08.774Z,96892.16
2017-09-18T05:13:36.180Z,96889.32
2017-09-18T05:16:03.605Z,96891.51
2017-09-18T05:18:31.029Z,96898.36
2017-09-18T05:20:58.727Z,96895.39
2017-09-18T05:23:26.142Z,96896.89
2017-09-18T05:25:53.580Z,96896.63
2017-09-18T05:28:20.999Z,96898.85
2017-09-18T05:30:48.407Z,96899.08
2017-09-18T05:33:15.858Z,96902.24
2017-09-18T05:35:43.375Z,96904.98
2017-09-18T05:38:10.803Z,96905.11
2017-09-18T05:40:38.229Z,96907.13
2017-09-18T05:43:05.763Z,96911.28
2017-09-18T05:45:33.186Z,96905.86
2017-09-18T05:48:00.622Z,96906.00
2017-09-18T05:50:28.044Z,96910.46
2017-09-18T05:52:55.459Z,96910.46
2017-09-18T05:55:23.027Z,96913.20
2017-09-18T05:57:50.501Z,96913.50
2017-09-18T06:00:17.925Z,96916.76
2017-09-18T06:02:45.384Z,96922.37
2017-09-18T06:05:12.802Z,96929.22
2017-09-18T06:07:40.210Z,96928.80
2017-09-18T06:10:07.678Z,96923.95
2017-09-18T06:12:35.144Z,96924.52
2017-09-18T06:15:02.549Z,96934.83
2017-09-18T06:17:29.993Z,96927.98
2017-09-18T06:19:57.419Z,96935.84
2017-09-18T06:22:24.831Z,96933.53
2017-09-18T06:24:52.278Z,96940.38
2017-09-18T06:27:19.719Z,96938.36
2017-09-18T06:29:47.122Z,96938.88
2017-09-18T06:32:14.568Z,96939.02
2017-09-18T06:34:42.024Z,96942.50
2017-09-18T06:37:09.442Z,96939.39
2017-09-18T06:39:36.888Z,96943.48
2017-09-18T06:42:04.314Z,96939.83
2017-09-18T06:44:31.726Z,96941.75
2017-09-18T06:46:59.164Z,96943.42
2017-09-18T06:49:26.582Z,96940.97
2017-09-18T06:51:54.030Z,96944.14
2017-09-18T06:54:21.468Z,96945.61
2017-09-18T06:56:48.966Z,96944.66
2017-09-18T06:59:16.486Z,96944.53
2017-09-18T07:01:43.932Z,96942.99
2017-09-18T07:04:11.368Z,96952.16
2017-09-18T07:06:38.809Z,96957.55
2017-09-18T07:09:06.287Z,96954.55
2017-09-18T07:11:33.699Z,96950.98
2017-09-18T07:14:01.115Z,96956.77
2017-09-18T07:16:28.553Z,96957.94
2017-09-18T07:18:55.975Z,96965.51
2017-09-18T07:21:23.369Z,96959.93
2017-09-18T07:23:50.847Z,96964.44
2017-09-18T07:26:18.251Z,96962.55
2017-09-18T07:28:45.657Z,96964.34
2017-09-18T07:31:13.100Z,96967.59
2017-09-18T07:33:40.498Z,96961.47
2017-09-18T07:36:07.934Z,96965.70
2017-09-18T07:38:35.388Z,96969.62
2017-09-18T07:41:02.802Z,96967.17
2017-09-18T07:43:30.216Z,96969.82
2017-09-18T07:45:57.676Z,96972.27
2017-09-18T07:48:25.084Z,96969.17
2017-09-18T07:50:53.146Z,96971.48
2017-09-18T07:53:20.582Z,96973.58
2017-09-18T07:55:48.090Z,96973.16
2017-09-18T07:58:15.506Z,96979.47
2017-09-18T08:00:42.967Z,96981.88
2017-09-18T08:03:10.397Z,96978.86
2017-09-18T08:05:37.799Z,96979.70
2017-09-18T08:08:05.255Z,96979.06
2017-09-18T08:10:32.661Z,96978.86
2017-09-18T08:13:00.067Z,96973.16
2017-09-18T08:15:27.602Z,96972.56
2017-09-18T08:17:55.015Z,96977.98
2017-09-18T08:20:22.431Z,96979.06
2017-09-18T08:22:49.887Z,96987.45
2017-09-18T08:25:17.370Z,96990.31
2017-09-18T08:27:44.837Z,96988.72
2017-09-18T08:30:12.264Z,96987.95
2017-09-18T08:32:39.673Z,96983.83
2017-09-18T08:35:07.095Z,96985.50
2017-09-18T08:37:34.646Z,96987.95
2017-09-18T08:40:02.107Z,96978.58
2017-09-18T08:42:29.519Z,96980.67
2017-09-18T08:44:56.966Z,96978.91
2017-09-18T08:47:24.390Z,96976.85
2017-09-18T08:49:51.859Z,96975.91
2017-09-18T08:52:19.297Z,96977.56
2017-09-18T08:54:46.738Z,96973.42
2017-09-18T08:57:14.152Z,96964.78
2017-09-18T08:59:41.600Z,96965.37
2017-09-18T09:02:09.008Z,96966.52
2017-09-18T09:04:36.420Z,96964.20
2017-09-18T09:07:03.883Z,96965.20
2017-09-18T09:09:31.545Z,96955.13
2017-09-18T09:11:58.955Z,96958.74
2017-09-18T09:14:26.415Z,96950.49
2017-09-18T09:16:53.858Z,96951.02
2017-09-18T09:19:21.275Z,96947.03
2017-09-18T09:21:48.711Z,96944.94
2017-09-18T09:24:16.122Z,96940.64
2017-09-18T09:26:43.539Z,96937.67
2017-09-18T09:29:10.993Z,96934.34
2017-09-18T09:31:38.438Z,96942.86
2017-09-18T09:34:05.859Z,96931.09
2017-09-18T09:36:33.347Z,96934.77
2017-09-18T09:39:00.832Z,96931.61
2017-09-18T09:41:28.260Z,96929.77
2017-09-18T09:43:56.350Z,96928.33
2017-09-18T09:46:23.779Z,96931.42
2017-09-18T09:48:51.823Z,96920.50
2017-09-18T09:51:19.264Z,96919.50
2017-09-18T09:53:46.685Z,96927.34
2017-09-18T09:56:14.193Z,96924.12
2017-09-18T09:58:41.783Z,96924.95
2017-09-18T10:01:09.199Z,96924.60
2017-09-18T10:03:36.611Z,96925.19
2017-09-18T10:06:04.064Z,96923.89
2017-09-18T10:08:31.485Z,96928.42
2017-09-18T10:10:58.916Z,96921.94
2017-09-18T10:13:26.383Z,96923.60
2017-09-18T10:15:53.797Z,96933.91
2017-09-18T10:18:21.225Z,96933.69
2017-09-18T10:20:48.715Z,96927.23
2017-09-18T10:23:16.129Z,96927.00
2017-09-18T10:25:43.674Z,96925.63
2017-09-18T10:28:11.170Z,96927.64
2017-09-18T10:30:38.588Z,96925.98
2017-09-18T10:33:06.258Z,96929.73
2017-09-18T10:35:34.344Z,96920.44
2017-09-18T10:38:01.747Z,96928.01
2017-09-18T10:40:29.169Z,96930.03
2017-09-18T10:42:56.823Z,96924.19
2017-09-18T10:45:24.249Z,96926.94
2017-09-18T10:47:51.698Z,96928.70
2017-09-18T10:50:19.363Z,96926.84
2017-09-18T10:52:46.797Z,96933.98
2017-09-18T10:55:14.219Z,96934.21
2017-09-18T10:57:41.891Z,96927.23
2017-09-18T11:00:09.329Z,96935.84
2017-09-18T11:02:37.655Z,96934.80
2017-09-18T11:05:05.096Z,96924.78
2017-09-18T11:07:32.513Z,96924.20
2017-09-18T11:09:59.947Z,96925.11
2017-09-18T11:12:27.613Z,96924.36
2017-09-18T11:14:55.152Z,96930.27
2017-09-18T11:17:25.891Z,96926.19
2017-09-18T11:19:53.446Z,96926.81
2017-09-18T11:22:20.872Z,96922.17
2017-09-18T11:24:48.289Z,96923.97
2017-09-18T11:27:15.750Z,96919.86
2017-09-18T11:29:43.158Z,96921.75
2017-09-18T11:32:10.638Z,96927.33
2017-09-18T11:34:38.063Z,96925.02
2017-09-18T11:37:05.485Z,96926.25
2017-09-18T11:39:32.877Z,96922.14
2017-09-18T11:42:00.319Z,96927.63
2017-09-18T11:44:27.736Z,96924.88
2017-09-18T11:46:55.173Z,96923.64
2017-09-18T11:49:22.615Z,96920.70
2017-09-18T11:51:50.078Z,96910.48
2017-09-18T11:54:17.515Z,96914.34
2017-09-18T11:56:44.961Z,96912.78
2017-09-18T11:59:12.393Z,96911.17
2017-09-18T12:01:39.820Z,96912.45
2017-09-18T12:04:07.273Z,96911.90
2017-09-18T12:06:34.673Z,96909.48
2017-09-18T12:09:02.082Z,96906.13
2017-09-18T12:11:29.519Z,96908.20
2017-09-18T12:13:56.934Z,96900.41
2017-09-18T12:16:24.465Z,96903.58
2017-09-18T12:18:51.918Z,96898.31
2017-09-18T12:21:19.324Z,96901.78
2017-09-18T12:23:46.738Z,96897.14
2017-09-18T12:26:14.194Z,96901.36
2017-09-18T12:28:41.604Z,96904.52
2017-09-18T12:31:09.047Z,96903.73
2017-09-18T12:33:36.502Z,96905.77
2017-09-18T12:36:03.942Z,96904.30
2017-09-18T12:38:31.351Z,96903.02
2017-09-18T12:40:58.837Z,96902.20
2017-09-18T12:43:26.247Z,96906.31
2017-09-18T12:45:53.665Z,96904.00
2017-09-18T12:48:21.107Z,96899.17
2017-09-18T12:50:48.511Z,96903.67
2017-09-18T12:53:15.919Z,96899.76
2017-09-18T12:55:43.961Z,96902.62
2017-09-18T12:58:11.367Z,96900.61
2017-09-18T13:00:38.778Z,96893.84
2017-09-18T13:03:06.215Z,96889.87
2017-09-18T13:05:33.640Z,96894.80
2017-09-18T13:08:01.057Z,96887.72
2017-09-18T13:10:28.510Z,96878.67
2017-09-18T13:12:55.933Z,96878.25
2017-09-18T13:15:23.330Z,96880.63
2017-09-18T13:17:50.776Z,96871.46
2017-09-18T13:20:18.180Z,96875.25
2017-09-18T13:22:45.664Z,96875.02
2017-09-18T13:25:13.228Z,96875.97
2017-09-18T13:27:40.654Z,96872.41
2017-09-18T13:30:08.188Z,96873.88
2017-09-18T13:32:35.704Z,96870.74
2017-09-18T13:35:03.132Z,96869.30
2017-09-18T13:37:30.528Z,96871.27
2017-09-18T13:39:58.076Z,96865.26
2017-09-18T13:42:25.596Z,96864.28
2017-09-18T13:44:53.258Z,96867.02
2017-09-18T13:47:20.717Z,96858.80
2017-09-18T13:49:48.179Z,96858.80
2017-09-18T13:52:15.585Z,96858.50
2017-09-18T13:54:43.290Z,96861.31
2017-09-18T13:57:10.805Z,96861.97
2017-09-18T13:59:38.226Z,96857.33
2017-09-18T14:02:05.894Z,96852.44
2017-09-18T14:04:33.387Z,96852.30
2017-09-18T14:07:00.813Z,96852.86
2017-09-18T14:09:29.283Z,96857.95
2017-09-18T14:11:56.739Z,96855.11
2017-09-18T14:14:24.285Z,96854.59
2017-09-18T14:16:51.707Z,96854.78
2017-09-18T14:19:19.106Z,96849.73
2017-09-18T14:21:46.523Z,96846.69
2017-09-18T14:24:13.993Z,96848.13
2017-09-18T14:26:41.405Z,96845.09
2017-09-18T14:29:08.857Z,96848.75
2017-09-18T14:31:36.380Z,96847.54
2017-09-18T14:34:03.796Z,96849.17
2017-09-18T14:36:31.216Z,96853.16
2017-09-18T14:38:58.938Z,96843.55
2017-09-18T14:41:26.486Z,96847.15
2017-09-18T14:43:53.935Z,96849.47
2017-09-18T14:46:21.591Z,96845.78
2017-09-18T14:48:49.050Z,96844.70
2017-09-18T14:51:16.485Z,96841.24
2017-09-18T14:53:43.939Z,96837.13
2017-09-18T14:56:11.404Z,96842.19
2017-09-18T14:58:38.816Z,96843.55
2017-09-18T15:01:06.304Z,96840.95
2017-09-18T15:03:33.743Z,96841.89
2017-09-18T15:06:01.147Z,96846.01
2017-09-18T15:08:28.611Z,96849.56
2017-09-18T15:10:56.140Z,96840.95
2017-09-18T15:13:23.842Z,96839.58
2017-09-18T15:15:51.477Z,96844.64
2017-09-18T15:18:18.928Z,96843.13
2017-09-18T15:20:46.355Z,96844.08
2017-09-18T15:23:13.800Z,96837.87
2017-09-18T15:25:41.206Z,96838.02
2017-09-18T15:28:08.634Z,96843.63
2017-09-18T15:30:36.100Z,96839.13
2017-09-18T15:33:03.511Z,96838.34
2017-09-18T15:35:30.940Z,96840.85
2017-09-18T15:37:58.378Z,96841.50
2017-09-18T15:40:25.863Z,96842.25
2017-09-18T15:42:53.275Z,96841.17
2017-09-18T15:45:20.714Z,96840.33
2017-09-18T15:47:48.128Z,96832.36
2017-09-18T15:50:15.605Z,96834.75
2017-09-18T15:52:43.060Z,96833.19
2017-09-18T15:55:10.466Z,96834.36
2017-09-18T15:57:37.879Z,96838.86
2017-09-18T16:00:05.404Z,96832.72
2017-09-18T16:02:32.806Z,96832.72
2017-09-18T16:05:00.365Z,96832.39
2017-09-18T16:07:27.798Z,96835.92
2017-09-18T16:09:55.230Z,96836.02
2017-09-18T16:12:22.816Z,96835.11
2017-09-18T16:14:50.561Z,96844.02
2017-09-18T16:17:17.968Z,96846.11
2017-09-18T16:19:45.441Z,96843.36
2017-09-18T16:22:12.899Z,96845.81
2017-09-18T16:24:40.325Z,96846.11
2017-09-18T16:27:07.904Z,96851.03
2017-09-18T16:29:35.374Z,96849.37
2017-09-18T16:32:02.826Z,96853.12
2017-09-18T16:34:30.267Z,96847.73
2017-09-18T16:36:57.731Z,96849.11
2017-09-18T16:39:25.164Z,96847.31
2017-09-18T16:41:52.577Z,96849.98
2017-09-18T16:44:20.025Z,96858.70
2017-09-18T16:46:47.451Z,96857.33
2017-09-18T16:49:15.086Z,96857.33
2017-09-18T16:51:42.594Z,96862.09
2017-09-18T16:54:10.005Z,96858.86
2017-09-18T16:56:37.422Z,96866.02
2017-09-18T16:59:05.111Z,96864.19
2017-09-18T17:01:32.595Z,96863.53
2017-09-18T17:04:00.019Z,96872.05
2017-09-18T17:06:27.489Z,96873.65
2017-09-18T17:08:54.911Z,96878.67
2017-09-18T17:11:22.506Z,96882.52
2017-09-18T17:13:49.970Z,96882.30
2017-09-18T17:16:17.412Z,96889.22
2017-09-18T17:18:44.824Z,96893.42
2017-09-18T17:21:12.491Z,96886.47
2017-09-18T17:23:39.929Z,96893.42
2017-09-18T17:26:07.351Z,96894.41
2017-09-18T17:28:34.854Z,96894.92
2017-09-18T17:31:02.814Z,96895.88
2017-09-18T17:33:30.230Z,96897.67
2017-09-18T17:35:57.677Z,96908.34
2017-09-18T17:38:25.087Z,96901.06
2017-09-18T17:40:52.505Z,96913.17
2017-09-18T17:43:19.921Z,96914.05
2017-09-18T17:45:47.772Z,96918.36
2017-09-18T17:48:15.207Z,96917.80
2017-09-18T17:50:42.651Z,96922.99
2017-09-18T17:53:10.063Z,96923.52
2017-09-18T17:55:37.476Z,96926.94
2017-09-18T17:58:05.756Z,96929.68
2017-09-18T18:00:33.179Z,96931.73
2017-09-18T18:03:00.596Z,96932.72
2017-09-18T18:05:28.050Z,96932.29
2017-09-18T18:07:55.594Z,96932.48
2017-09-18T18:10:23.834Z,96938.33
2017-09-18T18:12:51.314Z,96945.01
2017-09-18T18:15:18.736Z,96948.44
2017-09-18T18:17:46.162Z,96950.36
2017-09-18T18:20:13.626Z,96947.49
2017-09-18T18:22:41.085Z,96946.02
2017-09-18T18:25:08.498Z,96950.06
2017-09-18T18:27:36.039Z,96951.80
2017-09-18T18:30:03.474Z,96953.52
2017-09-18T18:32:30.950Z,96958.34
2017-09-18T18:34:58.409Z,96962.69
2017-09-18T18:37:25.845Z,96963.70
2017-09-18T18:39:53.235Z,96964.84
2017-09-18T18:42:20.718Z,96969.41
2017-09-18T18:44:48.126Z,96963.62
2017-09-18T18:47:15.662Z,96963.76
2017-09-18T18:49:43.087Z,96971.27
2017-09-18T18:52:10.684Z,96979.95
2017-09-18T18:54:38.148Z,96982.23
2017-09-18T18:57:05.574Z,96978.94
2017-09-18T18:59:32.997Z,96982.23
2017-09-18T19:02:00.411Z,96987.52
2017-09-18T19:04:27.892Z,96988.30
2017-09-18T19:06:55.300Z,96982.81
2017-09-18T19:09:22.707Z,96988.82
2017-09-18T19:11:50.135Z,96989.89
2017-09-18T19:14:17.555Z,96989.19
2017-09-18T19:16:44.967Z,96990.18
2017-09-18T19:19:12.386Z,96992.72
2017-09-18T19:21:39.896Z,96991.48
2017-09-18T19:24:07.339Z,96999.48
2017-09-18T19:26:34.767Z,96999.64
2017-09-18T19:29:02.698Z,96999.64
2017-09-18T19:31:30.118Z,97004.03
2017-09-18T19:33:57.664Z,96996.66
2017-09-18T19:36:25.112Z,96998.98
2017-09-18T19:38:52.568Z,96996.41
2017-09-18T19:41:20.009Z,96996.09
2017-09-18T19:43:47.437Z,96995.72
2017-09-18T19:46:14.887Z,96996.73
2017-09-18T19:48:42.332Z,97002.02
2017-09-18T19:51:09.769Z,96996.96
2017-09-18T19:53:37.218Z,97007.50
2017-09-18T19:56:04.676Z,96999.41
2017-09-18T19:58:32.116Z,97000.52
2017-09-18T20:00:59.557Z,97001.44
2017-09-18T20:03:27.062Z,97006.30
2017-09-18T20:05:54.473Z,97002.33
2017-09-18T20:08:21.884Z,97002.36
2017-09-18T20:10:49.339Z,97003.93
2017-09-18T20:13:16.795Z,97009.12
2017-09-18T20:15:44.208Z,97003.23
2017-09-18T20:18:11.657Z,97009.07
2017-09-18T20:20:39.073Z,97009.89
2017-09-18T20:23:06.485Z,97002.91
2017-09-18T20:25:33.905Z,97011.95
2017-09-18T20:28:01.365Z,97017.14
2017-09-18T20:30:28.779Z,97022.95
2017-09-18T20:32:56.211Z,97017.59
2017-09-18T20:35:23.642Z,97021.15
2017-09-18T20:37:51.082Z,97018.94
2017-09-18T20:40:18.575Z,97019.66
2017-09-18T20:42:46.003Z,97024.72
2017-09-18T20:45:13.415Z,97027.46
2017-09-18T20:47:40.899Z,97029.38
2017-09-18T20:50:08.313Z,97030.42
2017-09-18T20:52:35.726Z,97022.92
2017-09-18T20:55:03.176Z,97021.98
2017-09-18T20:57:30.584Z,97025.66
2017-09-18T20:59:57.999Z,97028.95
2017-09-18T21:02:25.435Z,97027.29
2017-09-18T21:04:52.861Z,97032.22
2017-09-18T21:07:20.292Z,97027.68
2017-09-18T21:09:47.744Z,97028.66
2017-09-18T21:12:15.157Z,97026.64
2017-09-18T21:14:42.658Z,97033.16
2017-09-18T21:17:10.184Z,97035.61
2017-09-18T21:19:37.598Z,97035.70
2017-09-18T21:22:05.849Z,97032.48
2017-09-18T21:24:33.287Z,97034.04
2017-09-18T21:27:01.412Z,97030.45
2017-09-18T21:29:28.819Z,97035.50
2017-09-18T21:31:56.273Z,97039.22
2017-09-18T21:34:23.679Z,97034.98
2017-09-18T21:36:51.112Z,97040.27
2017-09-18T21:39:18.535Z,97037.43
2017-09-18T21:41:45.951Z,97040.17
2017-09-18T21:44:13.369Z,97040.05
2017-09-18T21:46:41.463Z,97042.36
2017-09-18T21:49:08.874Z,97034.13
2017-09-18T21:51:36.324Z,97036.48
2017-09-18T21:54:03.744Z,97038.80
2017-09-18T21:56:31.248Z,97042.36
2017-09-18T21:58:58.692Z,97036.58
2017-09-18T22:01:26.132Z,97032.89
2017-09-18T22:03:53.548Z,97036.58
2017-09-18T22:06:20.952Z,97034.48
2017-09-18T22:08:48.389Z,97033.84
2017-09-18T22:11:15.831Z,97029.30
2017-09-18T22:13:43.247Z,97037.13
2017-09-18T22:16:10.673Z,97034.91
2017-09-18T22:18:38.095Z,97029.30
2017-09-18T22:21:05.523Z,97026.04
2017-09-18T22:23:32.967Z,97025.31
2017-09-18T22:26:00.434Z,97024.89
2017-09-18T22:28:27.848Z,97023.00
2017-09-18T22:30:55.293Z,97020.39
2017-09-18T22:33:22.699Z,97018.04
2017-09-18T22:35:50.115Z,97013.83
2017-09-18T22:38:17.619Z,97020.26
2017-09-18T22:40:45.044Z,97018.89
2017-09-18T22:43:12.463Z,97017.65
2017-09-18T22:45:39.908Z,97020.69
2017-09-18T22:48:07.325Z,97017.81
2017-09-18T22:50:34.864Z,97010.24
2017-09-18T22:53:02.474Z,97016.28
2017-09-18T22:55:29.918Z,97018.04
2017-09-18T22:57:57.331Z,97015.85
2017-09-18T23:00:24.768Z,97015.30
2017-09-18T23:02:52.184Z,97009.81
2017-09-18T23:05:19.598Z,97008.28
2017-09-18T23:07:47.017Z,97010.30
2017-09-18T23:10:14.427Z,97010.95
2017-09-18T23:12:41.852Z,97014.83
2017-09-18T23:15:09.305Z,97015.92
2017-09-18T23:17:36.711Z,97016.28
2017-09-18T23:20:05.103Z,97017.39
2017-09-18T23:22:32.560Z,97012.76
2017-09-18T23:24:59.998Z,97012.56
2017-09-18T23:27:27.407Z,97011.26
2017-09-18T23:29:54.868Z,97017.65
2017-09-18T23:32:22.283Z,97020.13
2017-09-18T23:34:49.705Z,97018.67
2017-09-18T23:37:17.226Z,97016.28
2017-09-18T23:39:44.642Z,97015.08
2017-09-18T23:42:12.152Z,97010.44
2017-09-18T23:44:39.608Z,97010.73
2017-09-18T23:47:07.025Z,97009.37
2017-09-18T23:49:34.502Z,97007.70
2017-09-18T23:52:01.936Z,97006.72
2017-09-18T23:54:29.341Z,97007.44
2017-09-18T23:56:56.765Z,97001.14
2017-09-18T23:59:24.218Z,97002.45
